createdAt,value
2022-09-20T00:01:38.358Z,7.30
2022-09-20T00:04:08.309Z,10.80
2022-09-20T00:06:36.729Z,11.20
2022-09-20T00:09:05.918Z,8.10
2022-09-20T00:11:36.539Z,10.90
2022-09-20T00:14:09.025Z,10.30
2022-09-20T00:16:39.959Z,7.90
2022-09-20T00:19:10.097Z,9.90
2022-09-20T00:21:38.564Z,11.40
2022-09-20T00:24:07.248Z,10.30
2022-09-20T00:26:35.523Z,12.40
2022-09-20T00:29:05.456Z,12.80
2022-09-20T00:31:34.081Z,10.80
2022-09-20T00:34:20.935Z,11.80
2022-09-20T00:36:49.005Z,10.90
2022-09-20T00:39:17.834Z,9.60
2022-09-20T00:41:46.304Z,12.20
2022-09-20T00:44:51.826Z,11.00
2022-09-20T00:47:26.859Z,14.20
2022-09-20T00:50:18.689Z,12.90
2022-09-20T00:52:49.423Z,12.90
2022-09-20T00:55:19.643Z,16.20
2022-09-20T00:57:48.637Z,10.20
2022-09-20T01:00:17.342Z,12.20
2022-09-20T01:02:54.030Z,11.30
2022-09-20T01:05:22.271Z,13.60
2022-09-20T01:07:52.288Z,14.30
2022-09-20T01:10:20.461Z,13.40
2022-09-20T01:12:50.786Z,13.80
2022-09-20T01:15:21.110Z,12.20
2022-09-20T01:17:52.765Z,14.90
2022-09-20T01:20:28.805Z,12.80
2022-09-20T01:23:25.670Z,14.40
2022-09-20T01:26:21.599Z,13.70
2022-09-20T01:28:54.273Z,10.70
2022-09-20T01:31:28.677Z,14.50
2022-09-20T01:34:08.915Z,14.00
2022-09-20T01:36:50.304Z,12.00
2022-09-20T01:39:37.046Z,15.50
2022-09-20T01:42:11.641Z,13.10
2022-09-20T01:45:12.302Z,15.60
2022-09-20T01:48:04.028Z,13.30
2022-09-20T01:51:26.547Z,14.60
2022-09-20T01:54:20.248Z,14.70
2022-09-20T01:56:54.155Z,14.90
2022-09-20T01:59:46.701Z,14.90
2022-09-20T02:02:41.035Z,13.00
2022-09-20T02:05:11.927Z,16.60
2022-09-20T02:08:17.476Z,13.00
2022-09-20T02:11:00.702Z,13.20
2022-09-20T02:13:44.543Z,13.60
2022-09-20T02:16:21.659Z,14.60
2022-09-20T02:19:08.231Z,14.90
2022-09-20T02:21:47.568Z,19.90
2022-09-20T02:24:48.918Z,13.00
2022-09-20T02:27:55.598Z,12.70
2022-09-20T02:30:48.333Z,17.90
2022-09-20T02:33:34.438Z,13.40
2022-09-20T02:36:26.267Z,14.30
2022-09-20T02:39:20.962Z,17.40
2022-09-20T02:41:55.897Z,13.60
2022-09-20T02:44:59.806Z,14.60
2022-09-20T02:47:41.419Z,13.80
2022-09-20T02:50:24.825Z,16.30
2022-09-20T02:53:26.602Z,15.60
2022-09-20T02:55:54.560Z,14.00
2022-09-20T02:58:47.614Z,17.60
2022-09-20T03:01:31.516Z,13.80
2022-09-20T03:04:08.587Z,13.00
2022-09-20T03:06:58.318Z,14.00
2022-09-20T03:09:51.787Z,16.30
2022-09-20T03:12:48.117Z,14.00
2022-09-20T03:15:45.984Z,16.40
2022-09-20T03:18:27.373Z,13.40
2022-09-20T03:21:13.054Z,15.30
2022-09-20T03:23:55.948Z,14.60
2022-09-20T03:26:46.268Z,14.80
2022-09-20T03:29:39.016Z,12.70
2022-09-20T03:32:16.360Z,13.40
2022-09-20T03:35:02.295Z,11.70
2022-09-20T03:37:46.343Z,14.30
2022-09-20T03:40:35.578Z,11.60
2022-09-20T03:43:45.255Z,12.30
2022-09-20T03:46:16.034Z,15.40
2022-09-20T03:49:05.359Z,12.80
2022-09-20T03:52:10.295Z,12.90
2022-09-20T03:55:16.460Z,12.60
2022-09-20T03:57:53.235Z,12.10
2022-09-20T04:00:24.276Z,12.00
2022-09-20T04:03:17.948Z,12.80
2022-09-20T04:06:29.641Z,12.20
2022-09-20T04:09:26.794Z,11.80
2022-09-20T04:12:22.821Z,14.10
2022-09-20T04:15:05.948Z,12.50
2022-09-20T04:17:45.485Z,11.00
2022-09-20T04:20:32.297Z,12.50
2022-09-20T04:23:06.409Z,13.00
2022-09-20T04:25:43.722Z,10.40
2022-09-20T04:28:27.134Z,10.10
2022-09-20T04:31:03.084Z,9.90
2022-09-20T04:33:38.937Z,11.50
2022-09-20T04:36:31.380Z,9.00
2022-09-20T04:39:37.649Z,10.90
2022-09-20T04:42:24.560Z,9.70
2022-09-20T04:45:10.654Z,10.90
2022-09-20T04:48:17.330Z,10.50
2022-09-20T04:51:16.429Z,10.80
2022-09-20T04:53:50.440Z,9.30
2022-09-20T04:56:41.756Z,8.80
2022-09-20T04:59:19.870Z,9.40
2022-09-20T05:02:12.967Z,11.60
2022-09-20T05:05:32.397Z,9.50
2022-09-20T05:08:32.611Z,11.10
2022-09-20T05:11:21.583Z,8.00
2022-09-20T05:14:13.311Z,9.30
2022-09-20T05:16:59.752Z,11.70
2022-09-20T05:19:56.051Z,8.60
2022-09-20T05:22:44.287Z,8.60
2022-09-20T05:25:40.213Z,8.60
2022-09-20T05:28:27.228Z,8.60
2022-09-20T05:31:05.947Z,11.60
2022-09-20T05:34:07.607Z,8.60
2022-09-20T05:36:57.608Z,8.60
2022-09-20T05:39:33.650Z,8.00
2022-09-20T05:42:29.575Z,10.60
2022-09-20T05:45:25.499Z,9.20
2022-09-20T05:48:22.140Z,8.90
2022-09-20T05:51:03.659Z,9.00
2022-09-20T05:56:06.439Z,9.30
2022-09-20T05:58:49.274Z,12.50
2022-09-20T06:02:02.728Z,7.20
2022-09-20T06:04:57.372Z,9.80
2022-09-20T06:07:50.431Z,9.90
2022-09-20T06:10:31.300Z,8.90
2022-09-20T06:13:49.138Z,7.90
2022-09-20T06:16:30.157Z,6.40
2022-09-20T06:19:01.052Z,8.90
2022-09-20T06:21:40.283Z,6.50
2022-09-20T06:24:19.004Z,8.90
2022-09-20T06:26:50.148Z,7.70
2022-09-20T06:29:38.906Z,8.60
2022-09-20T06:32:08.410Z,8.70
2022-09-20T06:34:36.909Z,10.10
2022-09-20T06:37:37.730Z,8.00
2022-09-20T06:40:51.577Z,9.30
2022-09-20T06:43:19.645Z,7.20
2022-09-20T06:45:48.793Z,8.00
2022-09-20T06:48:19.374Z,9.50
2022-09-20T06:50:47.546Z,6.90
2022-09-20T06:53:24.311Z,8.80
2022-09-20T06:55:53.109Z,7.40
2022-09-20T06:58:21.180Z,9.20
2022-09-20T07:00:49.479Z,9.10
2022-09-20T07:03:19.781Z,8.50
2022-09-20T07:05:48.444Z,6.20
2022-09-20T07:08:17.693Z,10.90
2022-09-20T07:10:45.738Z,7.40
2022-09-20T07:13:14.217Z,8.00
2022-09-20T07:15:42.288Z,6.30
2022-09-20T07:18:10.360Z,7.60
2022-09-20T07:20:38.533Z,9.40
2022-09-20T07:23:06.606Z,7.70
2022-09-20T07:25:35.278Z,7.50
2022-09-20T07:28:03.669Z,8.00
2022-09-20T07:30:31.741Z,8.70
2022-09-20T07:33:00.528Z,8.90
2022-09-20T07:35:29.420Z,9.00
2022-09-20T07:37:58.514Z,7.90
2022-09-20T07:40:27.145Z,13.10
2022-09-20T07:42:57.415Z,8.10
2022-09-20T07:45:25.990Z,10.20
2022-09-20T07:47:54.586Z,11.20
2022-09-20T07:50:22.761Z,7.80
2022-09-20T07:52:51.039Z,12.20
2022-09-20T07:55:19.621Z,10.00
2022-09-20T07:57:47.896Z,12.20
2022-09-20T08:00:16.378Z,9.30
2022-09-20T08:02:45.786Z,8.70
2022-09-20T08:05:13.853Z,8.50
2022-09-20T08:07:42.025Z,9.20
2022-09-20T08:10:10.609Z,7.90
2022-09-20T08:15:26.658Z,7.30
2022-09-20T08:17:55.305Z,10.20
2022-09-20T08:20:23.375Z,9.30
2022-09-20T08:23:12.729Z,7.00
2022-09-20T08:25:39.692Z,9.70
2022-09-20T08:28:08.074Z,7.80
2022-09-20T08:30:36.242Z,8.80
2022-09-20T08:33:05.123Z,7.80
2022-09-20T08:35:38.226Z,8.60
2022-09-20T08:41:10.000Z,6.50
2022-09-20T08:44:17.290Z,8.50
2022-09-20T08:46:50.280Z,8.90
2022-09-20T08:49:29.920Z,7.40
2022-09-20T08:51:59.629Z,6.60
2022-09-20T08:54:35.585Z,11.80
2022-09-20T08:57:11.339Z,4.90
2022-09-20T08:59:40.024Z,6.30
2022-09-20T09:02:20.254Z,7.10
2022-09-20T09:04:50.194Z,6.50
2022-09-20T09:07:22.055Z,5.90
2022-09-20T09:12:26.287Z,5.30
2022-09-20T09:14:59.888Z,7.00
2022-09-20T09:17:30.189Z,8.30
2022-09-20T09:20:02.281Z,6.30
2022-09-20T09:22:37.004Z,5.50
2022-09-20T09:25:28.024Z,6.00
2022-09-20T09:28:12.701Z,5.70
2022-09-20T09:30:44.025Z,7.20
2022-09-20T09:33:14.859Z,6.10
2022-09-20T09:35:44.091Z,8.20
2022-09-20T09:38:24.312Z,6.90
2022-09-20T09:40:59.245Z,14.20
2022-09-20T09:43:31.421Z,7.40
2022-09-20T09:46:24.226Z,7.80
2022-09-20T09:49:24.489Z,11.50
2022-09-20T09:52:07.513Z,10.70
2022-09-20T09:54:38.962Z,8.10
2022-09-20T09:57:16.050Z,6.80
2022-09-20T10:00:18.652Z,6.80
2022-09-20T10:02:53.761Z,4.80
2022-09-20T10:05:27.568Z,7.30
2022-09-20T10:08:23.799Z,6.10
2022-09-20T10:11:01.090Z,8.70
2022-09-20T10:13:57.932Z,7.60
2022-09-20T10:16:29.462Z,5.90
2022-09-20T10:19:19.440Z,11.60
2022-09-20T10:22:04.642Z,4.60
2022-09-20T10:25:19.716Z,3.90
2022-09-20T10:27:59.051Z,4.80
2022-09-20T10:30:57.793Z,5.30
2022-09-20T10:33:37.793Z,4.10
2022-09-20T10:36:37.428Z,4.10
2022-09-20T10:39:17.252Z,5.70
2022-09-20T10:42:38.366Z,5.20
2022-09-20T10:45:42.141Z,3.60
2022-09-20T10:48:18.337Z,4.80
2022-09-20T10:50:52.039Z,5.60
2022-09-20T10:53:49.710Z,3.70
2022-09-20T10:56:39.998Z,2.50
2022-09-20T10:59:07.968Z,3.70
2022-09-20T11:02:03.152Z,4.20
2022-09-20T11:04:43.430Z,3.30
2022-09-20T11:07:19.592Z,2.30
2022-09-20T11:09:58.314Z,4.00
2022-09-20T11:12:42.771Z,3.20
2022-09-20T11:15:23.156Z,4.50
2022-09-20T11:18:14.241Z,3.00
2022-09-20T11:20:54.597Z,3.30
2022-09-20T11:23:35.673Z,3.30
2022-09-20T11:26:31.385Z,4.50
2022-09-20T11:29:28.854Z,2.80
2022-09-20T11:32:21.911Z,4.50
2022-09-20T11:34:55.924Z,3.50
2022-09-20T11:37:30.750Z,3.30
2022-09-20T11:40:04.893Z,3.80
2022-09-20T11:42:37.030Z,5.50
2022-09-20T11:45:06.607Z,3.10
2022-09-20T11:47:55.319Z,6.10
2022-09-20T11:50:47.535Z,4.30
2022-09-20T11:53:43.455Z,4.20
2022-09-20T11:56:25.350Z,2.60
2022-09-20T12:01:32.655Z,3.00
2022-09-20T12:07:10.631Z,3.20
2022-09-20T12:09:45.331Z,4.00
2022-09-20T12:12:36.710Z,3.20
2022-09-20T12:15:22.004Z,3.10
2022-09-20T12:17:50.274Z,3.20
2022-09-20T12:20:36.574Z,3.70
2022-09-20T12:23:38.857Z,4.00
2022-09-20T12:26:19.001Z,3.70
2022-09-20T12:28:50.554Z,3.90
2022-09-20T12:31:18.659Z,3.90
2022-09-20T12:34:15.572Z,3.30
2022-09-20T12:36:45.282Z,3.30
2022-09-20T12:39:17.567Z,3.80
2022-09-20T12:41:57.406Z,5.00
2022-09-20T12:44:33.457Z,4.10
2022-09-20T12:47:01.529Z,3.40
2022-09-20T12:49:48.237Z,4.90
2022-09-20T12:52:59.014Z,3.20
2022-09-20T12:55:27.702Z,4.00
2022-09-20T12:58:02.319Z,2.90
2022-09-20T13:00:42.913Z,4.20
2022-09-20T13:03:24.168Z,2.70
2022-09-20T13:06:07.498Z,2.90
2022-09-20T13:08:43.143Z,3.60
2022-09-20T13:11:19.612Z,3.70
2022-09-20T13:14:06.422Z,5.90
2022-09-20T13:16:48.419Z,2.80
2022-09-20T13:22:42.215Z,2.20
2022-09-20T13:25:18.580Z,2.40
2022-09-20T13:28:03.240Z,3.50
2022-09-20T13:30:32.954Z,3.50
2022-09-20T13:33:23.140Z,2.00
2022-09-20T13:35:58.993Z,2.40
2022-09-20T13:38:31.988Z,2.20
2022-09-20T13:41:07.420Z,1.90
2022-09-20T13:43:41.844Z,1.70
2022-09-20T13:46:16.334Z,3.40
2022-09-20T13:48:47.592Z,4.10
2022-09-20T13:51:19.371Z,3.30
2022-09-20T13:53:47.864Z,1.80
2022-09-20T13:56:21.861Z,2.50
2022-09-20T13:58:51.574Z,1.80
2022-09-20T14:01:35.109Z,2.30
2022-09-20T14:04:08.369Z,2.20
2022-09-20T14:06:37.086Z,4.10
2022-09-20T14:09:11.382Z,3.40
2022-09-20T14:11:40.374Z,2.60
2022-09-20T14:14:11.335Z,4.20
2022-09-20T14:16:45.448Z,4.40
2022-09-20T14:19:20.362Z,2.10
2022-09-20T14:21:50.109Z,1.60
2022-09-20T14:24:18.057Z,1.70
2022-09-20T14:27:03.253Z,3.70
2022-09-20T14:29:34.068Z,2.70
2022-09-20T14:32:12.377Z,3.40
2022-09-20T14:34:41.657Z,3.10
2022-09-20T14:37:26.236Z,2.10
2022-09-20T14:40:01.291Z,3.90
2022-09-20T14:42:30.343Z,2.80
2022-09-20T14:44:59.153Z,3.60
2022-09-20T14:47:38.575Z,2.20
2022-09-20T14:50:43.833Z,2.40
2022-09-20T14:53:12.418Z,1.70
2022-09-20T14:55:55.439Z,2.30
2022-09-20T14:58:26.282Z,2.60
2022-09-20T15:01:01.845Z,4.00
2022-09-20T15:03:41.773Z,2.80
2022-09-20T15:06:14.407Z,2.60
2022-09-20T15:08:46.392Z,3.00
2022-09-20T15:11:19.517Z,4.70
2022-09-20T15:13:47.574Z,2.20
2022-09-20T15:16:20.527Z,3.10
2022-09-20T15:18:48.837Z,3.00
2022-09-20T15:21:16.908Z,5.50
2022-09-20T15:23:44.979Z,2.00
2022-09-20T15:26:15.203Z,2.00
2022-09-20T15:28:43.272Z,3.10
2022-09-20T15:31:11.394Z,2.20
2022-09-20T15:33:39.825Z,2.40
2022-09-20T15:36:08.407Z,2.40
2022-09-20T15:38:36.433Z,3.00
2022-09-20T15:41:04.859Z,2.90
2022-09-20T15:43:32.904Z,2.90
2022-09-20T15:46:17.083Z,2.00
2022-09-20T15:48:45.352Z,4.10
2022-09-20T15:51:15.287Z,1.70
2022-09-20T15:53:54.090Z,2.40
2022-09-20T15:56:25.131Z,2.50
2022-09-20T15:59:01.908Z,2.10
2022-09-20T16:01:37.123Z,1.60
2022-09-20T16:04:13.600Z,1.70
2022-09-20T16:06:44.166Z,3.00
2022-09-20T16:09:12.626Z,1.30
2022-09-20T16:11:41.207Z,2.00
2022-09-20T16:14:09.287Z,1.70
2022-09-20T16:16:40.341Z,1.20
2022-09-20T16:19:18.032Z,1.10
2022-09-20T16:21:58.099Z,1.20
2022-09-20T16:24:30.145Z,2.80
2022-09-20T16:27:00.970Z,1.30
2022-09-20T16:29:30.889Z,2.10
2022-09-20T16:32:00.696Z,2.70
2022-09-20T16:34:34.296Z,2.60
2022-09-20T16:37:20.392Z,8.40
2022-09-20T16:39:48.667Z,4.60
2022-09-20T16:42:17.250Z,4.70
2022-09-20T16:44:45.527Z,3.90
2022-09-20T16:47:20.766Z,5.70
2022-09-20T16:49:50.374Z,3.50
2022-09-20T16:52:18.547Z,3.90
2022-09-20T16:54:47.027Z,5.50
2022-09-20T16:57:15.921Z,3.70
2022-09-20T16:59:46.345Z,6.70
2022-09-20T17:02:14.725Z,13.40
2022-09-20T17:04:43.977Z,6.00
2022-09-20T17:07:12.617Z,3.70
2022-09-20T17:12:33.839Z,1.80
2022-09-20T17:15:01.908Z,3.40
2022-09-20T17:17:30.391Z,4.60
2022-09-20T17:19:58.472Z,39.10
2022-09-20T17:22:26.841Z,267.40
2022-09-20T17:24:55.117Z,285.50
2022-09-20T17:27:24.213Z,160.10
2022-09-20T17:29:52.366Z,138.50
2022-09-20T17:32:20.867Z,19.90
2022-09-20T17:34:49.040Z,11.90
2022-09-20T17:37:17.112Z,5.50
2022-09-20T17:39:45.183Z,5.60
2022-09-20T17:42:13.255Z,3.80
2022-09-20T17:44:41.334Z,9.00
2022-09-20T17:47:09.500Z,5.60
2022-09-20T17:49:38.595Z,5.30
2022-09-20T17:52:08.222Z,4.40
2022-09-20T17:54:36.273Z,6.30
2022-09-20T17:57:05.880Z,8.80
2022-09-20T17:59:34.672Z,5.20
2022-09-20T18:02:02.843Z,4.60
2022-09-20T18:04:30.914Z,5.90
2022-09-20T18:06:59.090Z,4.90
2022-09-20T18:09:27.584Z,7.70
2022-09-20T18:11:56.870Z,6.90
2022-09-20T18:14:28.606Z,5.10
2022-09-20T18:17:01.458Z,9.30
2022-09-20T18:19:33.731Z,11.10
2022-09-20T18:22:02.974Z,5.80
2022-09-20T18:24:31.791Z,5.50
2022-09-20T18:27:01.190Z,6.00
2022-09-20T18:29:31.903Z,6.40
2022-09-20T18:32:00.991Z,7.80
2022-09-20T18:34:33.780Z,9.40
2022-09-20T18:37:04.617Z,8.20
2022-09-20T18:39:35.120Z,8.10
2022-09-20T18:42:04.406Z,10.30
2022-09-20T18:44:34.338Z,7.80
2022-09-20T18:47:04.377Z,7.00
2022-09-20T18:49:33.354Z,7.00
2022-09-20T18:52:02.984Z,7.30
2022-09-20T18:54:32.482Z,6.00
2022-09-20T18:57:01.200Z,7.50
2022-09-20T18:59:29.638Z,8.30
2022-09-20T19:02:10.214Z,7.50
2022-09-20T19:04:56.410Z,8.90
2022-09-20T19:07:39.636Z,11.10
2022-09-20T19:10:27.368Z,6.70
2022-09-20T19:13:03.716Z,7.90
2022-09-20T19:15:53.905Z,9.80
2022-09-20T19:18:42.578Z,9.30
2022-09-20T19:21:19.353Z,10.70
2022-09-20T19:24:03.578Z,7.60
2022-09-20T19:26:38.332Z,7.50
2022-09-20T19:29:33.541Z,8.00
2022-09-20T19:32:02.510Z,8.40
2022-09-20T19:34:34.717Z,8.40
2022-09-20T19:37:21.613Z,9.50
2022-09-20T19:40:25.988Z,9.00
2022-09-20T19:43:11.106Z,8.30
2022-09-20T19:45:55.765Z,9.60
2022-09-20T19:48:50.564Z,7.20
2022-09-20T19:51:19.272Z,8.40
2022-09-20T19:53:47.794Z,9.80
2022-09-20T19:56:27.845Z,9.80
2022-09-20T19:58:56.482Z,7.70
2022-09-20T20:01:26.547Z,7.90
2022-09-20T20:03:56.016Z,7.40
2022-09-20T20:06:36.980Z,8.30
2022-09-20T20:09:11.800Z,9.20
2022-09-20T20:11:58.707Z,9.90
2022-09-20T20:14:26.677Z,10.00
2022-09-20T20:17:06.011Z,11.70
2022-09-20T20:19:33.980Z,11.60
2022-09-20T20:22:08.804Z,9.20
2022-09-20T20:24:41.795Z,9.00
2022-09-20T20:27:09.870Z,11.70
2022-09-20T20:29:37.942Z,9.30
2022-09-20T20:32:06.115Z,9.00
2022-09-20T20:34:37.255Z,11.30
2022-09-20T20:37:05.754Z,10.40
2022-09-20T20:39:34.428Z,10.70
2022-09-20T20:42:03.621Z,9.10
2022-09-20T20:44:35.190Z,10.20
2022-09-20T20:47:05.988Z,11.20
2022-09-20T20:49:36.104Z,14.10
2022-09-20T20:52:05.291Z,12.10
2022-09-20T20:54:33.490Z,10.10
2022-09-20T20:57:03.492Z,11.70
2022-09-20T20:59:31.589Z,10.70
2022-09-20T21:02:04.533Z,8.70
2022-09-20T21:04:34.286Z,14.20
2022-09-20T21:07:02.561Z,9.70
2022-09-20T21:09:32.271Z,10.20
2022-09-20T21:12:00.445Z,10.40
2022-09-20T21:14:28.721Z,11.30
2022-09-20T21:16:57.509Z,12.20
2022-09-20T21:19:25.990Z,9.90
2022-09-20T21:21:54.065Z,12.10
2022-09-20T21:24:22.135Z,12.90
2022-09-20T21:26:50.205Z,9.90
2022-09-20T21:29:19.915Z,14.00
2022-09-20T21:31:48.191Z,10.80
2022-09-20T21:34:16.960Z,11.30
2022-09-20T21:36:45.360Z,11.40
2022-09-20T21:39:13.837Z,11.00
2022-09-20T21:41:42.011Z,11.50
2022-09-20T21:44:11.005Z,12.30
2022-09-20T21:46:41.510Z,12.90
2022-09-20T21:49:11.864Z,11.10
2022-09-20T21:51:45.458Z,15.40
2022-09-20T21:54:13.530Z,10.90
2022-09-20T21:56:41.703Z,11.80
2022-09-20T21:59:10.184Z,12.50
2022-09-20T22:01:40.422Z,14.30
2022-09-20T22:04:11.268Z,15.00
2022-09-20T22:06:42.175Z,13.30
2022-09-20T22:09:16.198Z,16.00
2022-09-20T22:11:49.180Z,13.40
2022-09-20T22:14:19.959Z,15.20
2022-09-20T22:16:51.560Z,16.70
2022-09-20T22:19:20.590Z,15.20
2022-09-20T22:21:51.055Z,15.10
2022-09-20T22:24:19.892Z,12.40
2022-09-20T22:26:50.310Z,17.20
2022-09-20T22:29:18.786Z,13.60
2022-09-20T22:31:50.442Z,12.00
2022-09-20T22:34:20.869Z,14.40
2022-09-20T22:36:49.734Z,15.80
2022-09-20T22:39:18.143Z,9.90
2022-09-20T22:41:48.284Z,12.30
2022-09-20T22:44:16.737Z,13.00
2022-09-20T22:46:44.909Z,13.90
2022-09-20T22:49:12.980Z,16.30
2022-09-20T22:51:41.256Z,12.30
2022-09-20T22:54:11.598Z,12.90
2022-09-20T22:56:41.598Z,13.00
2022-09-20T22:59:12.843Z,11.80
2022-09-20T23:01:43.205Z,16.50
2022-09-20T23:04:17.284Z,12.60
2022-09-20T23:09:36.976Z,14.70
2022-09-20T23:12:05.152Z,13.60
2022-09-20T23:14:33.220Z,12.70
2022-09-20T23:19:49.849Z,12.90
2022-09-20T23:22:17.914Z,14.30
2022-09-20T23:24:45.988Z,13.90
2022-09-20T23:27:15.681Z,12.30
2022-09-20T23:29:43.767Z,14.40
2022-09-20T23:32:11.838Z,13.20
2022-09-20T23:34:39.909Z,13.70
2022-09-20T23:37:07.981Z,11.00
2022-09-20T23:39:36.053Z,15.70
2022-09-20T23:42:07.505Z,13.50
2022-09-20T23:44:35.576Z,13.30
2022-09-20T23:47:03.851Z,12.50
2022-09-20T23:49:32.331Z,16.60
2022-09-20T23:52:00.524Z,13.00
2022-09-20T23:54:28.780Z,10.00
2022-09-20T23:56:56.764Z,11.50
2022-09-20T23:59:25.128Z,12.20
